createdAt,value
2023-02-21T00:01:07.158Z,18.10
2023-02-21T00:04:27.554Z,17.27
2023-02-21T00:07:48.233Z,17.93
2023-02-21T00:11:08.696Z,19.60
2023-02-21T00:14:29.070Z,16.83
2023-02-21T00:17:49.745Z,18.93
2023-02-21T00:21:10.269Z,18.13
2023-02-21T00:24:37.025Z,19.63
2023-02-21T00:27:57.611Z,19.33
2023-02-21T00:31:18.294Z,17.37
2023-02-21T00:34:38.572Z,18.57
2023-02-21T00:37:59.086Z,19.73
2023-02-21T00:41:19.598Z,18.10
2023-02-21T00:44:39.733Z,19.83
2023-02-21T00:48:00.334Z,19.17
2023-02-21T00:51:20.768Z,19.10
2023-02-21T00:54:41.043Z,20.10
2023-02-21T00:58:01.219Z,20.23
2023-02-21T01:01:21.732Z,19.13
2023-02-21T01:04:41.944Z,19.73
2023-02-21T01:08:02.564Z,18.20
2023-02-21T01:11:23.037Z,21.67
2023-02-21T01:14:43.811Z,20.53
2023-02-21T01:18:04.219Z,19.73
2023-02-21T01:21:24.301Z,19.30
2023-02-21T01:24:44.538Z,19.37
2023-02-21T01:28:04.872Z,18.80
2023-02-21T01:31:25.402Z,20.30
2023-02-21T01:34:46.082Z,19.50
2023-02-21T01:38:06.344Z,18.73
2023-02-21T01:41:26.551Z,21.23
2023-02-21T01:44:58.757Z,20.80
2023-02-21T01:48:19.082Z,20.53
2023-02-21T01:51:43.870Z,21.20
2023-02-21T01:55:08.659Z,18.97
2023-02-21T01:58:29.632Z,21.90
2023-02-21T02:02:14.897Z,22.03
2023-02-21T02:05:37.236Z,20.67
2023-02-21T02:08:57.999Z,21.30
2023-02-21T02:12:18.262Z,20.10
2023-02-21T02:16:00.149Z,20.43
2023-02-21T02:19:20.703Z,19.63
2023-02-21T02:22:56.603Z,21.93
2023-02-21T02:26:32.199Z,20.80
2023-02-21T02:30:11.726Z,19.20
2023-02-21T02:33:43.729Z,18.90
2023-02-21T02:36:57.303Z,20.77
2023-02-21T02:40:30.142Z,20.77
2023-02-21T02:43:38.627Z,19.53
2023-02-21T02:46:43.571Z,21.27
2023-02-21T02:49:46.626Z,21.03
2023-02-21T02:53:00.218Z,20.57
2023-02-21T02:56:06.712Z,21.40
2023-02-21T02:59:25.748Z,20.83
2023-02-21T03:02:46.168Z,20.23
2023-02-21T03:06:03.603Z,21.20
2023-02-21T03:09:38.573Z,21.17
2023-02-21T03:12:55.486Z,22.80
2023-02-21T03:16:15.239Z,22.07
2023-02-21T03:19:22.865Z,21.50
2023-02-21T03:22:32.127Z,21.87
2023-02-21T03:25:34.963Z,20.67
2023-02-21T03:28:39.592Z,22.70
2023-02-21T03:31:47.759Z,22.33
2023-02-21T03:34:49.676Z,20.30
2023-02-21T03:37:53.639Z,22.43
2023-02-21T03:40:58.959Z,22.30
2023-02-21T03:44:00.765Z,21.13
2023-02-21T03:47:02.586Z,23.10
2023-02-21T03:50:05.248Z,22.70
2023-02-21T03:53:10.548Z,22.20
2023-02-21T03:56:14.005Z,21.93
2023-02-21T03:59:31.429Z,22.53
2023-02-21T04:02:33.420Z,23.87
2023-02-21T04:05:35.184Z,23.77
2023-02-21T04:08:38.200Z,22.93
2023-02-21T04:11:43.998Z,22.53
2023-02-21T04:14:45.936Z,24.33
2023-02-21T04:17:47.945Z,22.33
2023-02-21T04:20:50.830Z,23.47
2023-02-21T04:23:53.997Z,23.47
2023-02-21T04:26:58.607Z,22.67
2023-02-21T04:30:01.300Z,23.50
2023-02-21T04:33:04.095Z,23.90
2023-02-21T04:36:06.164Z,23.03
2023-02-21T04:39:12.378Z,22.67
2023-02-21T04:42:14.592Z,21.47
2023-02-21T04:45:16.656Z,23.20
2023-02-21T04:48:18.488Z,22.13
2023-02-21T04:51:23.117Z,23.80
2023-02-21T04:54:24.863Z,23.00
2023-02-21T04:57:26.886Z,19.43
2023-02-21T05:00:28.607Z,23.90
2023-02-21T05:03:30.492Z,22.03
2023-02-21T05:06:32.892Z,22.67
2023-02-21T05:09:34.600Z,21.10
2023-02-21T05:12:37.816Z,22.23
2023-02-21T05:15:39.618Z,20.63
2023-02-21T05:18:44.829Z,20.23
2023-02-21T05:21:46.549Z,23.10
2023-02-21T05:24:49.103Z,21.90
2023-02-21T05:27:54.079Z,21.47
2023-02-21T05:30:57.765Z,20.70
2023-02-21T05:34:00.297Z,21.53
2023-02-21T05:37:02.018Z,22.20
2023-02-21T05:40:05.360Z,22.63
2023-02-21T05:43:07.306Z,22.57
2023-02-21T05:46:17.872Z,23.37
2023-02-21T05:49:19.609Z,21.00
2023-02-21T05:52:21.324Z,23.63
2023-02-21T05:55:23.279Z,22.80
2023-02-21T05:58:24.967Z,21.90
2023-02-21T06:01:26.675Z,22.57
2023-02-21T06:04:28.379Z,21.93
2023-02-21T06:07:30.058Z,23.83
2023-02-21T06:10:31.771Z,22.60
2023-02-21T06:13:33.449Z,21.97
2023-02-21T06:16:36.865Z,22.97
2023-02-21T06:19:39.644Z,21.47
2023-02-21T06:22:41.348Z,20.97
2023-02-21T06:25:43.105Z,23.40
2023-02-21T06:28:45.039Z,23.97
2023-02-21T06:31:46.829Z,21.73
2023-02-21T06:34:48.593Z,22.23
2023-02-21T06:37:50.606Z,22.67
2023-02-21T06:40:52.418Z,21.80
2023-02-21T06:43:55.507Z,21.87
2023-02-21T06:46:57.225Z,22.83
2023-02-21T06:49:58.934Z,21.03
2023-02-21T06:53:00.897Z,22.70
2023-02-21T06:56:02.617Z,23.10
2023-02-21T06:59:04.440Z,21.50
2023-02-21T07:02:06.887Z,22.03
2023-02-21T07:05:09.396Z,24.23
2023-02-21T07:08:11.138Z,23.07
2023-02-21T07:11:14.188Z,23.30
2023-02-21T07:14:16.106Z,22.67
2023-02-21T07:17:17.877Z,23.37
2023-02-21T07:20:19.564Z,23.93
2023-02-21T07:23:21.275Z,22.03
2023-02-21T07:26:23.162Z,23.90
2023-02-21T07:29:25.121Z,21.80
2023-02-21T07:32:26.833Z,23.43
2023-02-21T07:35:28.519Z,21.10
2023-02-21T07:38:31.494Z,22.00
2023-02-21T07:41:33.296Z,22.93
2023-02-21T07:44:35.139Z,22.00
2023-02-21T07:47:37.002Z,22.90
2023-02-21T07:50:38.679Z,21.67
2023-02-21T07:53:41.071Z,22.83
2023-02-21T07:56:44.834Z,21.43
2023-02-21T07:59:48.007Z,22.87
2023-02-21T08:02:49.728Z,21.23
2023-02-21T08:05:51.552Z,22.50
2023-02-21T08:08:53.272Z,23.03
2023-02-21T08:11:55.033Z,21.60
2023-02-21T08:14:56.734Z,22.47
2023-02-21T08:17:58.440Z,21.30
2023-02-21T08:21:00.202Z,21.87
2023-02-21T08:24:02.255Z,22.50
2023-02-21T08:27:03.991Z,21.20
2023-02-21T08:30:06.121Z,21.83
2023-02-21T08:33:08.279Z,21.07
2023-02-21T08:36:10.021Z,21.10
2023-02-21T08:39:12.149Z,20.23
2023-02-21T08:42:14.634Z,22.80
2023-02-21T08:45:19.146Z,20.30
2023-02-21T08:48:21.020Z,21.87
2023-02-21T08:51:26.808Z,20.67
2023-02-21T08:54:28.473Z,20.40
2023-02-21T08:57:30.185Z,17.80
2023-02-21T09:00:32.398Z,19.50
2023-02-21T09:03:34.886Z,19.20
2023-02-21T09:06:36.593Z,18.50
2023-02-21T09:09:38.762Z,19.87
2023-02-21T09:12:40.718Z,19.50
2023-02-21T09:15:42.416Z,18.03
2023-02-21T09:18:44.172Z,19.93
2023-02-21T09:21:47.068Z,20.60
2023-02-21T09:24:48.778Z,17.50
2023-02-21T09:27:53.370Z,18.27
2023-02-21T09:30:56.071Z,16.73
2023-02-21T09:33:57.886Z,18.53
2023-02-21T09:36:59.833Z,16.30
2023-02-21T09:40:01.766Z,17.63
2023-02-21T09:43:05.679Z,15.63
2023-02-21T09:46:15.043Z,16.93
2023-02-21T09:49:24.047Z,16.77
2023-02-21T09:52:32.535Z,15.33
2023-02-21T09:55:38.741Z,16.00
2023-02-21T09:58:43.989Z,14.80
2023-02-21T10:02:02.112Z,14.33
2023-02-21T10:05:14.718Z,15.37
2023-02-21T10:08:37.237Z,14.93
2023-02-21T10:11:57.035Z,12.67
2023-02-21T10:15:14.182Z,12.40
2023-02-21T10:18:30.897Z,12.70
2023-02-21T10:21:37.316Z,12.70
2023-02-21T10:24:39.084Z,12.97
2023-02-21T10:27:41.100Z,11.93
2023-02-21T10:30:43.425Z,13.53
2023-02-21T10:33:45.283Z,11.90
2023-02-21T10:36:48.378Z,10.63
2023-02-21T10:39:54.479Z,11.40
2023-02-21T10:43:04.487Z,11.63
2023-02-21T10:46:25.091Z,10.57
2023-02-21T10:49:34.494Z,11.30
2023-02-21T10:52:48.782Z,11.27
2023-02-21T10:56:19.679Z,14.47
2023-02-21T10:59:30.668Z,12.37
2023-02-21T11:02:35.745Z,12.60
2023-02-21T11:05:38.434Z,12.23
2023-02-21T11:08:43.302Z,11.90
2023-02-21T11:11:45.021Z,11.13
2023-02-21T11:14:58.739Z,11.83
2023-02-21T11:18:12.780Z,10.27
2023-02-21T11:21:17.538Z,10.17
2023-02-21T11:24:19.459Z,10.77
2023-02-21T11:27:21.885Z,11.40
2023-02-21T11:30:23.754Z,11.47
2023-02-21T11:33:25.634Z,10.13
2023-02-21T11:36:32.125Z,10.47
2023-02-21T11:39:34.789Z,9.47
2023-02-21T11:42:36.561Z,9.73
2023-02-21T11:45:44.554Z,9.97
2023-02-21T11:48:54.472Z,10.23
2023-02-21T11:51:58.590Z,10.97
2023-02-21T11:55:00.461Z,9.93
2023-02-21T11:58:26.696Z,10.60
2023-02-21T12:01:37.521Z,9.30
2023-02-21T12:04:57.833Z,9.47
2023-02-21T12:08:05.419Z,10.47
2023-02-21T12:11:28.308Z,10.53
2023-02-21T12:14:29.984Z,10.93
2023-02-21T12:18:06.884Z,10.80
2023-02-21T12:21:19.673Z,11.27
2023-02-21T12:24:27.322Z,9.57
2023-02-21T12:27:31.981Z,10.57
2023-02-21T12:31:10.155Z,10.43
2023-02-21T12:34:25.228Z,12.67
2023-02-21T12:37:36.852Z,13.07
2023-02-21T12:41:05.414Z,13.60
2023-02-21T12:44:20.802Z,14.83
2023-02-21T12:47:42.880Z,12.90
2023-02-21T12:50:51.920Z,12.53
2023-02-21T12:54:02.367Z,10.63
2023-02-21T12:57:11.278Z,11.60
2023-02-21T13:00:31.282Z,11.30
2023-02-21T13:03:36.167Z,13.10
2023-02-21T13:07:11.074Z,11.67
2023-02-21T13:10:24.702Z,17.20
2023-02-21T13:13:32.141Z,14.77
2023-02-21T13:16:33.900Z,16.83
2023-02-21T13:19:44.230Z,16.97
2023-02-21T13:23:25.334Z,18.00
2023-02-21T13:27:00.474Z,17.57
2023-02-21T13:30:12.920Z,17.90
2023-02-21T13:33:44.022Z,19.37
2023-02-21T13:36:47.286Z,21.43
2023-02-21T13:40:07.692Z,20.57
2023-02-21T13:43:19.045Z,18.17
2023-02-21T13:46:23.487Z,17.57
2023-02-21T13:49:42.688Z,18.17
2023-02-21T13:53:08.444Z,17.00
2023-02-21T13:56:10.053Z,17.87
2023-02-21T13:59:23.804Z,18.33
2023-02-21T14:02:32.852Z,16.17
2023-02-21T14:05:46.640Z,17.13
2023-02-21T14:08:50.077Z,15.30
2023-02-21T14:11:54.056Z,14.10
2023-02-21T14:15:07.173Z,13.70
2023-02-21T14:18:22.370Z,15.63
2023-02-21T14:21:45.929Z,14.43
2023-02-21T14:24:53.073Z,14.67
2023-02-21T14:27:56.304Z,13.33
2023-02-21T14:31:03.970Z,12.90
2023-02-21T14:34:08.117Z,13.10
2023-02-21T14:37:27.586Z,14.40
2023-02-21T14:40:29.245Z,15.73
2023-02-21T14:43:49.450Z,18.33
2023-02-21T14:47:07.508Z,21.53
2023-02-21T14:50:28.036Z,22.20
2023-02-21T14:54:06.957Z,25.47
2023-02-21T14:57:35.004Z,25.10
2023-02-21T15:01:10.372Z,22.93
2023-02-21T15:04:32.016Z,26.27
2023-02-21T15:07:50.192Z,26.70
2023-02-21T15:11:02.302Z,26.67
2023-02-21T15:14:11.763Z,27.97
2023-02-21T15:17:19.133Z,25.30
2023-02-21T15:20:20.801Z,27.53
2023-02-21T15:23:29.575Z,27.27
2023-02-21T15:26:34.308Z,27.67
2023-02-21T15:29:36.031Z,28.50
2023-02-21T15:32:37.808Z,27.80
2023-02-21T15:35:50.878Z,27.10
2023-02-21T15:39:10.701Z,28.20
2023-02-21T15:42:14.786Z,27.63
2023-02-21T15:45:44.833Z,28.00
2023-02-21T15:48:48.546Z,30.17
2023-02-21T15:51:51.509Z,29.27
2023-02-21T15:55:12.842Z,29.83
2023-02-21T15:58:16.535Z,28.43
2023-02-21T16:01:22.366Z,28.13
2023-02-21T16:04:25.765Z,27.30
2023-02-21T16:07:35.015Z,30.10
2023-02-21T16:10:36.897Z,28.60
2023-02-21T16:13:39.789Z,28.70
2023-02-21T16:16:41.697Z,27.10
2023-02-21T16:19:47.800Z,31.07
2023-02-21T16:23:07.236Z,28.97
2023-02-21T16:26:09.851Z,28.77
2023-02-21T16:29:11.530Z,25.67
2023-02-21T16:32:21.301Z,28.27
2023-02-21T16:35:25.555Z,27.03
2023-02-21T16:38:27.634Z,25.73
2023-02-21T16:41:29.406Z,28.27
2023-02-21T16:44:31.086Z,27.07
2023-02-21T16:47:32.817Z,27.97
2023-02-21T16:50:37.332Z,28.53
2023-02-21T16:53:39.128Z,26.10
2023-02-21T16:56:42.781Z,25.77
2023-02-21T16:59:44.514Z,28.77
2023-02-21T17:02:46.463Z,27.47
2023-02-21T17:05:50.064Z,28.07
2023-02-21T17:08:52.518Z,28.37
2023-02-21T17:11:54.928Z,26.50
2023-02-21T17:14:56.634Z,28.07
2023-02-21T17:17:59.134Z,27.23
2023-02-21T17:21:01.307Z,27.20
2023-02-21T17:24:03.019Z,26.07
2023-02-21T17:27:04.703Z,25.33
2023-02-21T17:30:07.339Z,26.73
2023-02-21T17:33:10.946Z,24.83
2023-02-21T17:36:19.732Z,26.93
2023-02-21T17:39:21.923Z,27.10
2023-02-21T17:42:24.532Z,28.40
2023-02-21T17:45:26.342Z,26.90
2023-02-21T17:48:28.072Z,26.93
2023-02-21T17:51:29.824Z,27.33
2023-02-21T17:54:31.560Z,26.30
2023-02-21T17:57:37.239Z,26.80
2023-02-21T18:00:39.311Z,29.03
2023-02-21T18:03:41.040Z,26.20
2023-02-21T18:06:42.912Z,27.77
2023-02-21T18:09:47.125Z,27.50
2023-02-21T18:12:51.162Z,27.67
2023-02-21T18:15:53.221Z,28.50
2023-02-21T18:18:54.984Z,26.63
2023-02-21T18:21:56.801Z,29.73
2023-02-21T18:24:58.572Z,27.17
2023-02-21T18:28:00.875Z,29.57
2023-02-21T18:31:02.868Z,27.97
2023-02-21T18:34:05.155Z,28.27
2023-02-21T18:37:08.188Z,28.13
2023-02-21T18:40:10.420Z,24.63
2023-02-21T18:43:27.410Z,24.73
2023-02-21T18:46:29.759Z,24.53
2023-02-21T18:49:38.381Z,27.60
2023-02-21T18:52:40.094Z,27.03
2023-02-21T18:55:42.279Z,27.57
2023-02-21T18:58:44.092Z,28.23
2023-02-21T19:01:53.993Z,26.27
2023-02-21T19:04:55.708Z,28.53
2023-02-21T19:07:58.339Z,27.33
2023-02-21T19:11:00.102Z,25.20
2023-02-21T19:14:01.882Z,28.10
2023-02-21T19:17:06.997Z,27.30
2023-02-21T19:20:10.675Z,26.77
2023-02-21T19:23:13.071Z,30.37
2023-02-21T19:26:14.860Z,27.57
2023-02-21T19:29:16.737Z,28.60
2023-02-21T19:32:19.389Z,27.40
2023-02-21T19:35:21.115Z,27.77
2023-02-21T19:38:22.874Z,27.03
2023-02-21T19:41:26.052Z,26.70
2023-02-21T19:44:27.740Z,26.50
2023-02-21T19:47:30.064Z,26.27
2023-02-21T19:50:31.818Z,25.23
2023-02-21T19:53:33.521Z,24.80
2023-02-21T19:56:35.244Z,26.00
2023-02-21T19:59:37.067Z,25.37
2023-02-21T20:02:38.932Z,24.87
2023-02-21T20:05:40.669Z,25.33
2023-02-21T20:08:47.669Z,25.07
2023-02-21T20:11:49.381Z,25.80
2023-02-21T20:14:51.254Z,24.17
2023-02-21T20:17:54.647Z,29.27
2023-02-21T20:20:56.374Z,31.13
2023-02-21T20:23:58.701Z,31.50
2023-02-21T20:27:01.043Z,29.40
2023-02-21T20:30:04.660Z,28.83
2023-02-21T20:33:07.042Z,24.87
2023-02-21T20:36:09.317Z,27.70
2023-02-21T20:39:31.105Z,27.37
2023-02-21T20:42:33.514Z,23.47
2023-02-21T20:45:37.149Z,26.20
2023-02-21T20:48:38.915Z,25.80
2023-02-21T20:51:42.911Z,26.13
2023-02-21T20:54:45.303Z,26.93
2023-02-21T20:57:47.076Z,26.07
2023-02-21T21:00:49.546Z,25.30
2023-02-21T21:03:51.570Z,27.47
2023-02-21T21:06:56.373Z,24.47
2023-02-21T21:09:58.092Z,28.50
2023-02-21T21:12:59.851Z,26.90
2023-02-21T21:16:01.717Z,27.10
2023-02-21T21:19:03.981Z,23.47
2023-02-21T21:22:09.003Z,23.60
2023-02-21T21:25:11.412Z,26.67
2023-02-21T21:28:13.176Z,26.50
2023-02-21T21:31:15.264Z,27.77
2023-02-21T21:34:28.038Z,25.33
2023-02-21T21:37:30.287Z,26.83
2023-02-21T21:40:31.968Z,25.83
2023-02-21T21:43:33.725Z,26.37
2023-02-21T21:46:35.701Z,24.87
2023-02-21T21:49:37.451Z,26.03
2023-02-21T21:52:39.197Z,22.20
2023-02-21T21:55:40.897Z,22.70
2023-02-21T21:58:43.529Z,22.17
2023-02-21T22:01:45.258Z,21.77
2023-02-21T22:04:48.067Z,21.33
2023-02-21T22:07:52.127Z,23.07
2023-02-21T22:10:54.849Z,20.73
2023-02-21T22:13:56.597Z,21.50
2023-02-21T22:16:58.625Z,22.30
2023-02-21T22:20:00.369Z,21.10
2023-02-21T22:23:05.490Z,21.07
2023-02-21T22:26:21.220Z,20.57
2023-02-21T22:29:23.081Z,21.23
2023-02-21T22:32:24.795Z,21.13
2023-02-21T22:35:28.413Z,22.13
2023-02-21T22:38:30.279Z,21.57
2023-02-21T22:41:32.037Z,18.70
2023-02-21T22:44:36.378Z,21.00
2023-02-21T22:47:39.110Z,19.60
2023-02-21T22:50:40.986Z,18.77
2023-02-21T22:53:43.501Z,18.10
2023-02-21T22:56:51.521Z,18.87
2023-02-21T22:59:57.800Z,19.07
2023-02-21T23:03:01.319Z,18.40
2023-02-21T23:06:03.296Z,20.20
2023-02-21T23:09:12.223Z,17.93
2023-02-21T23:12:14.931Z,18.03
2023-02-21T23:15:18.351Z,18.43
2023-02-21T23:18:23.164Z,17.73
2023-02-21T23:21:25.022Z,18.90
2023-02-21T23:24:28.080Z,19.00
2023-02-21T23:27:33.671Z,16.73
2023-02-21T23:30:43.029Z,18.23
2023-02-21T23:33:48.661Z,17.93
2023-02-21T23:36:50.412Z,17.23
2023-02-21T23:39:52.105Z,17.50
2023-02-21T23:42:54.847Z,18.07
2023-02-21T23:45:57.836Z,16.63
2023-02-21T23:48:59.558Z,17.57
2023-02-21T23:52:01.727Z,16.40
2023-02-21T23:55:03.624Z,17.33
2023-02-21T23:58:08.838Z,16.70
